sensor_id;sensor_type;location;lat;lon;timestamp;temperature;humidity
22469;DHT22;11401;50.792;4.352;2023-12-20T00:01:07;14.80;61.60
22469;DHT22;11401;50.792;4.352;2023-12-20T00:03:34;14.80;61.50
22469;DHT22;11401;50.792;4.352;2023-12-20T00:06:08;14.70;61.40
22469;DHT22;11401;50.792;4.352;2023-12-20T00:08:36;14.70;61.90
22469;DHT22;11401;50.792;4.352;2023-12-20T00:11:03;14.70;61.70
22469;DHT22;11401;50.792;4.352;2023-12-20T00:13:30;14.70;61.90
22469;DHT22;11401;50.792;4.352;2023-12-20T00:15:57;14.70;61.90
22469;DHT22;11401;50.792;4.352;2023-12-20T00:18:24;14.60;61.90
22469;DHT22;11401;50.792;4.352;2023-12-20T00:20:51;14.70;62.00
22469;DHT22;11401;50.792;4.352;2023-12-20T00:23:18;14.60;61.90
22469;DHT22;11401;50.792;4.352;2023-12-20T00:25:47;14.60;62.00
22469;DHT22;11401;50.792;4.352;2023-12-20T00:28:14;14.60;62.40
22469;DHT22;11401;50.792;4.352;2023-12-20T00:30:41;14.60;62.00
22469;DHT22;11401;50.792;4.352;2023-12-20T00:33:08;14.60;62.10
22469;DHT22;11401;50.792;4.352;2023-12-20T00:35:35;14.50;62.00
22469;DHT22;11401;50.792;4.352;2023-12-20T00:38:03;14.50;61.80
22469;DHT22;11401;50.792;4.352;2023-12-20T00:40:31;14.50;61.80
22469;DHT22;11401;50.792;4.352;2023-12-20T00:42:59;14.50;62.00
22469;DHT22;11401;50.792;4.352;2023-12-20T00:45:26;14.40;61.80
22469;DHT22;11401;50.792;4.352;2023-12-20T00:47:53;14.40;62.30
22469;DHT22;11401;50.792;4.352;2023-12-20T00:50:21;14.40;62.30
22469;DHT22;11401;50.792;4.352;2023-12-20T00:52:49;14.30;62.20
22469;DHT22;11401;50.792;4.352;2023-12-20T00:55:16;14.30;62.10
22469;DHT22;11401;50.792;4.352;2023-12-20T00:57:43;14.30;62.10
22469;DHT22;11401;50.792;4.352;2023-12-20T01:00:11;14.30;62.00
22469;DHT22;11401;50.792;4.352;2023-12-20T01:02:40;14.30;62.30
22469;DHT22;11401;50.792;4.352;2023-12-20T01:05:07;14.30;62.30
22469;DHT22;11401;50.792;4.352;2023-12-20T01:07:36;14.20;62.30
22469;DHT22;11401;50.792;4.352;2023-12-20T01:10:03;14.20;62.10
22469;DHT22;11401;50.792;4.352;2023-12-20T01:12:30;14.20;62.30
22469;DHT22;11401;50.792;4.352;2023-12-20T01:14:57;14.20;62.50
22469;DHT22;11401;50.792;4.352;2023-12-20T01:17:25;14.10;62.20
22469;DHT22;11401;50.792;4.352;2023-12-20T01:19:52;14.10;62.30
22469;DHT22;11401;50.792;4.352;2023-12-20T01:22:19;14.00;62.50
22469;DHT22;11401;50.792;4.352;2023-12-20T01:24:46;14.10;62.80
22469;DHT22;11401;50.792;4.352;2023-12-20T01:27:13;14.10;62.70
22469;DHT22;11401;50.792;4.352;2023-12-20T01:29:40;14.00;62.60
22469;DHT22;11401;50.792;4.352;2023-12-20T01:32:07;14.00;62.90
22469;DHT22;11401;50.792;4.352;2023-12-20T01:34:34;14.00;62.80
22469;DHT22;11401;50.792;4.352;2023-12-20T01:37:02;14.00;62.70
22469;DHT22;11401;50.792;4.352;2023-12-20T01:39:31;14.00;62.80
22469;DHT22;11401;50.792;4.352;2023-12-20T01:41:58;14.00;63.10
22469;DHT22;11401;50.792;4.352;2023-12-20T01:44:25;14.00;62.90
22469;DHT22;11401;50.792;4.352;2023-12-20T01:46:52;14.00;62.90
22469;DHT22;11401;50.792;4.352;2023-12-20T01:49:19;14.00;62.50
22469;DHT22;11401;50.792;4.352;2023-12-20T01:51:46;14.00;62.90
22469;DHT22;11401;50.792;4.352;2023-12-20T01:54:14;14.00;62.60
22469;DHT22;11401;50.792;4.352;2023-12-20T01:56:42;14.00;62.70
22469;DHT22;11401;50.792;4.352;2023-12-20T01:59:09;13.90;62.90
22469;DHT22;11401;50.792;4.352;2023-12-20T02:01:36;13.90;62.90
22469;DHT22;11401;50.792;4.352;2023-12-20T02:04:04;13.90;62.90
22469;DHT22;11401;50.792;4.352;2023-12-20T02:06:31;13.80;63.10
22469;DHT22;11401;50.792;4.352;2023-12-20T02:09:08;13.80;63.00
22469;DHT22;11401;50.792;4.352;2023-12-20T02:11:36;13.80;63.40
22469;DHT22;11401;50.792;4.352;2023-12-20T02:14:03;13.80;63.10
22469;DHT22;11401;50.792;4.352;2023-12-20T02:16:30;13.80;63.10
22469;DHT22;11401;50.792;4.352;2023-12-20T02:18:57;13.80;63.70
22469;DHT22;11401;50.792;4.352;2023-12-20T02:21:34;13.70;63.50
22469;DHT22;11401;50.792;4.352;2023-12-20T02:24:01;13.80;63.30
22469;DHT22;11401;50.792;4.352;2023-12-20T02:26:28;13.80;63.00
22469;DHT22;11401;50.792;4.352;2023-12-20T02:28:56;13.80;63.30
22469;DHT22;11401;50.792;4.352;2023-12-20T02:31:23;13.80;63.10
22469;DHT22;11401;50.792;4.352;2023-12-20T02:33:50;13.80;63.00
22469;DHT22;11401;50.792;4.352;2023-12-20T02:36:17;13.80;62.70
22469;DHT22;11401;50.792;4.352;2023-12-20T02:38:44;13.80;62.90
22469;DHT22;11401;50.792;4.352;2023-12-20T02:41:11;13.80;62.60
22469;DHT22;11401;50.792;4.352;2023-12-20T02:43:38;13.90;63.00
22469;DHT22;11401;50.792;4.352;2023-12-20T02:46:05;13.80;62.90
22469;DHT22;11401;50.792;4.352;2023-12-20T02:48:32;13.80;62.80
22469;DHT22;11401;50.792;4.352;2023-12-20T02:50:59;13.80;62.80
22469;DHT22;11401;50.792;4.352;2023-12-20T02:53:26;13.80;62.80
22469;DHT22;11401;50.792;4.352;2023-12-20T02:55:53;13.80;63.10
22469;DHT22;11401;50.792;4.352;2023-12-20T02:58:20;13.80;63.00
22469;DHT22;11401;50.792;4.352;2023-12-20T03:00:47;13.80;63.00
22469;DHT22;11401;50.792;4.352;2023-12-20T03:03:14;13.90;63.20
22469;DHT22;11401;50.792;4.352;2023-12-20T03:05:41;13.80;62.40
22469;DHT22;11401;50.792;4.352;2023-12-20T03:08:09;13.90;62.90
22469;DHT22;11401;50.792;4.352;2023-12-20T03:10:37;13.80;62.70
22469;DHT22;11401;50.792;4.352;2023-12-20T03:13:04;13.80;63.20
22469;DHT22;11401;50.792;4.352;2023-12-20T03:15:31;13.80;63.20
22469;DHT22;11401;50.792;4.352;2023-12-20T03:17:58;13.70;63.00
22469;DHT22;11401;50.792;4.352;2023-12-20T03:20:26;13.90;64.00
22469;DHT22;11401;50.792;4.352;2023-12-20T03:22:53;13.80;62.70
22469;DHT22;11401;50.792;4.352;2023-12-20T03:25:20;13.80;63.10
22469;DHT22;11401;50.792;4.352;2023-12-20T03:27:47;13.80;63.80
22469;DHT22;11401;50.792;4.352;2023-12-20T03:30:14;13.90;63.40
22469;DHT22;11401;50.792;4.352;2023-12-20T03:32:42;13.90;62.60
22469;DHT22;11401;50.792;4.352;2023-12-20T03:35:09;13.90;62.60
22469;DHT22;11401;50.792;4.352;2023-12-20T03:37:36;13.90;64.10
22469;DHT22;11401;50.792;4.352;2023-12-20T03:40:03;14.00;62.60
22469;DHT22;11401;50.792;4.352;2023-12-20T03:42:31;14.00;62.50
22469;DHT22;11401;50.792;4.352;2023-12-20T03:44:58;14.00;62.60
22469;DHT22;11401;50.792;4.352;2023-12-20T03:47:25;14.00;62.20
22469;DHT22;11401;50.792;4.352;2023-12-20T03:49:53;13.90;62.60
22469;DHT22;11401;50.792;4.352;2023-12-20T03:52:20;13.90;62.30
22469;DHT22;11401;50.792;4.352;2023-12-20T03:54:47;14.00;63.00
22469;DHT22;11401;50.792;4.352;2023-12-20T03:57:14;14.00;62.30
22469;DHT22;11401;50.792;4.352;2023-12-20T03:59:41;14.00;62.40
22469;DHT22;11401;50.792;4.352;2023-12-20T04:02:08;14.00;62.30
22469;DHT22;11401;50.792;4.352;2023-12-20T04:04:35;14.00;63.10
22469;DHT22;11401;50.792;4.352;2023-12-20T04:07:03;14.10;61.90
22469;DHT22;11401;50.792;4.352;2023-12-20T04:09:30;14.10;63.00
22469;DHT22;11401;50.792;4.352;2023-12-20T04:11:57;14.20;62.10
22469;DHT22;11401;50.792;4.352;2023-12-20T04:14:24;14.10;62.30
22469;DHT22;11401;50.792;4.352;2023-12-20T04:16:52;14.20;61.70
22469;DHT22;11401;50.792;4.352;2023-12-20T04:19:19;14.10;61.70
22469;DHT22;11401;50.792;4.352;2023-12-20T04:21:46;14.00;62.50
22469;DHT22;11401;50.792;4.352;2023-12-20T04:24:13;14.10;61.80
22469;DHT22;11401;50.792;4.352;2023-12-20T04:26:40;14.00;62.00
22469;DHT22;11401;50.792;4.352;2023-12-20T04:29:07;14.10;62.20
22469;DHT22;11401;50.792;4.352;2023-12-20T04:31:34;14.10;61.80
22469;DHT22;11401;50.792;4.352;2023-12-20T04:34:01;14.10;61.60
22469;DHT22;11401;50.792;4.352;2023-12-20T04:36:28;14.10;61.40
22469;DHT22;11401;50.792;4.352;2023-12-20T04:38:56;13.90;61.90
22469;DHT22;11401;50.792;4.352;2023-12-20T04:41:23;13.90;62.70
22469;DHT22;11401;50.792;4.352;2023-12-20T04:43:50;13.90;62.40
22469;DHT22;11401;50.792;4.352;2023-12-20T04:46:18;13.90;62.80
22469;DHT22;11401;50.792;4.352;2023-12-20T04:48:45;14.00;63.30
22469;DHT22;11401;50.792;4.352;2023-12-20T04:51:12;14.00;62.00
22469;DHT22;11401;50.792;4.352;2023-12-20T04:53:39;13.90;62.60
22469;DHT22;11401;50.792;4.352;2023-12-20T04:56:06;14.00;63.10
22469;DHT22;11401;50.792;4.352;2023-12-20T04:58:33;14.10;63.80
22469;DHT22;11401;50.792;4.352;2023-12-20T05:01:00;14.20;62.30
22469;DHT22;11401;50.792;4.352;2023-12-20T05:03:27;14.20;61.80
22469;DHT22;11401;50.792;4.352;2023-12-20T05:05:54;14.10;62.00
22469;DHT22;11401;50.792;4.352;2023-12-20T05:08:21;14.00;62.50
22469;DHT22;11401;50.792;4.352;2023-12-20T05:10:49;14.00;62.40
22469;DHT22;11401;50.792;4.352;2023-12-20T05:13:16;14.00;63.10
22469;DHT22;11401;50.792;4.352;2023-12-20T05:15:43;14.00;62.80
22469;DHT22;11401;50.792;4.352;2023-12-20T05:18:10;14.10;62.50
22469;DHT22;11401;50.792;4.352;2023-12-20T05:20:37;14.10;62.70
22469;DHT22;11401;50.792;4.352;2023-12-20T05:23:04;14.20;62.20
22469;DHT22;11401;50.792;4.352;2023-12-20T05:25:32;14.30;62.30
22469;DHT22;11401;50.792;4.352;2023-12-20T05:27:59;14.30;61.40
22469;DHT22;11401;50.792;4.352;2023-12-20T05:30:26;14.40;61.40
22469;DHT22;11401;50.792;4.352;2023-12-20T05:32:53;14.50;62.20
22469;DHT22;11401;50.792;4.352;2023-12-20T05:35:20;14.50;60.40
22469;DHT22;11401;50.792;4.352;2023-12-20T05:37:49;14.50;61.60
22469;DHT22;11401;50.792;4.352;2023-12-20T05:40:16;14.50;60.50
22469;DHT22;11401;50.792;4.352;2023-12-20T05:42:43;14.40;60.60
22469;DHT22;11401;50.792;4.352;2023-12-20T05:45:11;14.50;60.60
22469;DHT22;11401;50.792;4.352;2023-12-20T05:47:38;14.40;59.80
22469;DHT22;11401;50.792;4.352;2023-12-20T05:50:05;14.30;60.80
22469;DHT22;11401;50.792;4.352;2023-12-20T05:52:32;14.40;60.10
22469;DHT22;11401;50.792;4.352;2023-12-20T05:54:59;14.40;60.10
22469;DHT22;11401;50.792;4.352;2023-12-20T05:57:28;14.40;60.00
22469;DHT22;11401;50.792;4.352;2023-12-20T05:59:55;14.30;60.50
22469;DHT22;11401;50.792;4.352;2023-12-20T06:02:22;14.40;60.20
22469;DHT22;11401;50.792;4.352;2023-12-20T06:04:51;14.30;60.50
22469;DHT22;11401;50.792;4.352;2023-12-20T06:07:18;14.40;60.90
22469;DHT22;11401;50.792;4.352;2023-12-20T06:09:45;14.30;59.90
22469;DHT22;11401;50.792;4.352;2023-12-20T06:12:12;14.30;60.30
22469;DHT22;11401;50.792;4.352;2023-12-20T06:14:39;14.20;60.60
22469;DHT22;11401;50.792;4.352;2023-12-20T06:17:06;14.10;61.00
22469;DHT22;11401;50.792;4.352;2023-12-20T06:19:34;14.00;61.20
22469;DHT22;11401;50.792;4.352;2023-12-20T06:22:01;14.10;61.20
22469;DHT22;11401;50.792;4.352;2023-12-20T06:24:28;14.00;61.00
22469;DHT22;11401;50.792;4.352;2023-12-20T06:26:56;14.10;61.50
22469;DHT22;11401;50.792;4.352;2023-12-20T06:29:23;14.10;62.20
22469;DHT22;11401;50.792;4.352;2023-12-20T06:31:50;14.10;60.20
22469;DHT22;11401;50.792;4.352;2023-12-20T06:34:17;14.00;60.20
22469;DHT22;11401;50.792;4.352;2023-12-20T06:36:44;14.10;59.60
22469;DHT22;11401;50.792;4.352;2023-12-20T06:39:12;14.10;59.50
22469;DHT22;11401;50.792;4.352;2023-12-20T06:41:39;14.20;62.70
22469;DHT22;11401;50.792;4.352;2023-12-20T06:44:07;14.20;59.90
22469;DHT22;11401;50.792;4.352;2023-12-20T06:46:34;14.10;60.20
22469;DHT22;11401;50.792;4.352;2023-12-20T06:49:01;14.00;60.80
22469;DHT22;11401;50.792;4.352;2023-12-20T06:51:28;13.90;61.20
22469;DHT22;11401;50.792;4.352;2023-12-20T06:53:57;14.10;61.00
22469;DHT22;11401;50.792;4.352;2023-12-20T06:56:25;14.10;61.00
22469;DHT22;11401;50.792;4.352;2023-12-20T06:58:52;14.20;61.70
22469;DHT22;11401;50.792;4.352;2023-12-20T07:01:19;14.30;61.40
22469;DHT22;11401;50.792;4.352;2023-12-20T07:03:46;14.20;59.80
22469;DHT22;11401;50.792;4.352;2023-12-20T07:06:13;14.10;60.80
22469;DHT22;11401;50.792;4.352;2023-12-20T07:08:43;14.20;60.80
22469;DHT22;11401;50.792;4.352;2023-12-20T07:11:10;14.10;59.80
22469;DHT22;11401;50.792;4.352;2023-12-20T07:13:37;14.20;60.30
22469;DHT22;11401;50.792;4.352;2023-12-20T07:16:05;14.20;60.90
22469;DHT22;11401;50.792;4.352;2023-12-20T07:18:32;14.00;59.70
22469;DHT22;11401;50.792;4.352;2023-12-20T07:20:59;13.80;60.30
22469;DHT22;11401;50.792;4.352;2023-12-20T07:23:26;13.70;61.20
22469;DHT22;11401;50.792;4.352;2023-12-20T07:25:53;13.80;61.50
22469;DHT22;11401;50.792;4.352;2023-12-20T07:28:20;13.80;61.00
22469;DHT22;11401;50.792;4.352;2023-12-20T07:30:47;13.70;61.00
22469;DHT22;11401;50.792;4.352;2023-12-20T07:33:15;13.60;61.90
22469;DHT22;11401;50.792;4.352;2023-12-20T07:35:42;13.60;62.70
22469;DHT22;11401;50.792;4.352;2023-12-20T07:38:09;13.70;61.90
22469;DHT22;11401;50.792;4.352;2023-12-20T07:40:36;13.60;61.40
22469;DHT22;11401;50.792;4.352;2023-12-20T07:43:05;13.80;62.20
22469;DHT22;11401;50.792;4.352;2023-12-20T07:45:32;13.80;61.40
22469;DHT22;11401;50.792;4.352;2023-12-20T07:47:59;13.70;61.10
22469;DHT22;11401;50.792;4.352;2023-12-20T07:50:27;13.60;61.60
22469;DHT22;11401;50.792;4.352;2023-12-20T07:52:54;13.60;61.30
22469;DHT22;11401;50.792;4.352;2023-12-20T07:55:22;13.60;61.90
22469;DHT22;11401;50.792;4.352;2023-12-20T07:57:49;13.80;61.40
22469;DHT22;11401;50.792;4.352;2023-12-20T08:00:17;13.70;62.20
22469;DHT22;11401;50.792;4.352;2023-12-20T08:02:45;13.70;61.70
22469;DHT22;11401;50.792;4.352;2023-12-20T08:05:12;13.80;61.40
22469;DHT22;11401;50.792;4.352;2023-12-20T08:07:42;13.80;61.00
22469;DHT22;11401;50.792;4.352;2023-12-20T08:10:10;13.80;62.30
22469;DHT22;11401;50.792;4.352;2023-12-20T08:12:37;13.70;61.60
22469;DHT22;11401;50.792;4.352;2023-12-20T08:15:04;13.60;61.40
22469;DHT22;11401;50.792;4.352;2023-12-20T08:17:32;13.70;62.30
22469;DHT22;11401;50.792;4.352;2023-12-20T08:19:59;13.80;61.80
22469;DHT22;11401;50.792;4.352;2023-12-20T08:22:27;13.70;61.20
22469;DHT22;11401;50.792;4.352;2023-12-20T08:24:58;13.60;61.70
22469;DHT22;11401;50.792;4.352;2023-12-20T08:27:25;13.50;62.10
22469;DHT22;11401;50.792;4.352;2023-12-20T08:29:52;13.90;62.60
22469;DHT22;11401;50.792;4.352;2023-12-20T08:32:19;13.90;61.30
22469;DHT22;11401;50.792;4.352;2023-12-20T08:34:46;13.90;60.90
22469;DHT22;11401;50.792;4.352;2023-12-20T08:37:13;13.90;61.30
22469;DHT22;11401;50.792;4.352;2023-12-20T08:39:40;13.90;61.30
22469;DHT22;11401;50.792;4.352;2023-12-20T08:42:11;13.80;61.40
22469;DHT22;11401;50.792;4.352;2023-12-20T08:44:39;13.80;61.30
22469;DHT22;11401;50.792;4.352;2023-12-20T08:47:06;13.80;61.50
22469;DHT22;11401;50.792;4.352;2023-12-20T08:49:33;13.80;61.60
22469;DHT22;11401;50.792;4.352;2023-12-20T08:52:00;13.70;61.60
22469;DHT22;11401;50.792;4.352;2023-12-20T08:54:27;13.70;61.80
22469;DHT22;11401;50.792;4.352;2023-12-20T08:56:54;13.70;61.50
22469;DHT22;11401;50.792;4.352;2023-12-20T08:59:21;13.70;61.60
22469;DHT22;11401;50.792;4.352;2023-12-20T09:01:48;13.70;61.60
22469;DHT22;11401;50.792;4.352;2023-12-20T09:04:21;13.70;61.60
22469;DHT22;11401;50.792;4.352;2023-12-20T09:06:48;13.80;61.50
22469;DHT22;11401;50.792;4.352;2023-12-20T09:09:15;13.90;61.90
22469;DHT22;11401;50.792;4.352;2023-12-20T09:11:44;14.10;61.20
22469;DHT22;11401;50.792;4.352;2023-12-20T09:14:13;14.10;61.20
22469;DHT22;11401;50.792;4.352;2023-12-20T09:16:41;14.10;59.90
22469;DHT22;11401;50.792;4.352;2023-12-20T09:19:08;14.10;60.20
22469;DHT22;11401;50.792;4.352;2023-12-20T09:21:35;14.00;60.20
22469;DHT22;11401;50.792;4.352;2023-12-20T09:24:03;13.90;60.40
22469;DHT22;11401;50.792;4.352;2023-12-20T09:26:30;13.80;61.20
22469;DHT22;11401;50.792;4.352;2023-12-20T09:28:57;13.90;61.50
22469;DHT22;11401;50.792;4.352;2023-12-20T09:31:24;13.90;60.90
22469;DHT22;11401;50.792;4.352;2023-12-20T09:33:52;13.80;61.50
22469;DHT22;11401;50.792;4.352;2023-12-20T09:36:20;14.00;61.20
22469;DHT22;11401;50.792;4.352;2023-12-20T09:38:47;14.00;60.80
22469;DHT22;11401;50.792;4.352;2023-12-20T09:41:14;14.00;61.50
22469;DHT22;11401;50.792;4.352;2023-12-20T09:43:42;14.00;60.90
22469;DHT22;11401;50.792;4.352;2023-12-20T09:46:10;14.00;61.00
22469;DHT22;11401;50.792;4.352;2023-12-20T09:48:39;14.00;61.90
22469;DHT22;11401;50.792;4.352;2023-12-20T09:51:06;14.10;61.40
22469;DHT22;11401;50.792;4.352;2023-12-20T09:53:37;14.20;61.10
22469;DHT22;11401;50.792;4.352;2023-12-20T09:56:06;14.30;61.80
22469;DHT22;11401;50.792;4.352;2023-12-20T09:58:35;14.40;60.00
22469;DHT22;11401;50.792;4.352;2023-12-20T10:01:03;14.30;60.60
22469;DHT22;11401;50.792;4.352;2023-12-20T10:03:31;14.50;61.20
22469;DHT22;11401;50.792;4.352;2023-12-20T10:05:59;14.60;60.60
22469;DHT22;11401;50.792;4.352;2023-12-20T10:08:27;14.60;59.60
22469;DHT22;11401;50.792;4.352;2023-12-20T10:10:56;14.40;60.00
22469;DHT22;11401;50.792;4.352;2023-12-20T10:13:29;14.60;61.70
22469;DHT22;11401;50.792;4.352;2023-12-20T10:15:56;14.90;61.00
22469;DHT22;11401;50.792;4.352;2023-12-20T10:18:24;14.80;59.30
22469;DHT22;11401;50.792;4.352;2023-12-20T10:21:06;14.80;59.60
22469;DHT22;11401;50.792;4.352;2023-12-20T10:23:33;14.70;59.60
22469;DHT22;11401;50.792;4.352;2023-12-20T10:26:00;14.70;59.60
22469;DHT22;11401;50.792;4.352;2023-12-20T10:28:34;14.60;59.70
22469;DHT22;11401;50.792;4.352;2023-12-20T10:31:02;14.80;61.10
22469;DHT22;11401;50.792;4.352;2023-12-20T10:33:30;14.80;59.30
22469;DHT22;11401;50.792;4.352;2023-12-20T10:36:01;14.70;59.80
22469;DHT22;11401;50.792;4.352;2023-12-20T10:38:29;14.80;60.00
22469;DHT22;11401;50.792;4.352;2023-12-20T10:40:58;14.80;59.60
22469;DHT22;11401;50.792;4.352;2023-12-20T10:43:29;15.00;61.10
22469;DHT22;11401;50.792;4.352;2023-12-20T10:45:58;15.00;60.30
22469;DHT22;11401;50.792;4.352;2023-12-20T10:48:26;15.10;60.40
22469;DHT22;11401;50.792;4.352;2023-12-20T10:50:58;15.00;59.20
22469;DHT22;11401;50.792;4.352;2023-12-20T10:53:25;14.90;59.50
22469;DHT22;11401;50.792;4.352;2023-12-20T10:55:56;14.90;59.80
22469;DHT22;11401;50.792;4.352;2023-12-20T10:58:26;14.90;59.90
22469;DHT22;11401;50.792;4.352;2023-12-20T11:01:00;15.10;60.70
22469;DHT22;11401;50.792;4.352;2023-12-20T11:03:36;15.20;59.70
22469;DHT22;11401;50.792;4.352;2023-12-20T11:14:11;14.90;60.10
22469;DHT22;11401;50.792;4.352;2023-12-20T11:16:41;15.00;61.20
22469;DHT22;11401;50.792;4.352;2023-12-20T11:19:20;15.10;60.40
22469;DHT22;11401;50.792;4.352;2023-12-20T11:21:48;15.10;59.20
22469;DHT22;11401;50.792;4.352;2023-12-20T11:24:16;15.20;59.60
22469;DHT22;11401;50.792;4.352;2023-12-20T11:26:47;15.10;59.20
22469;DHT22;11401;50.792;4.352;2023-12-20T11:29:35;15.10;60.30
22469;DHT22;11401;50.792;4.352;2023-12-20T11:35:16;15.20;58.50
22469;DHT22;11401;50.792;4.352;2023-12-20T11:37:45;15.20;59.20
22469;DHT22;11401;50.792;4.352;2023-12-20T11:40:17;15.20;59.90
22469;DHT22;11401;50.792;4.352;2023-12-20T11:42:49;15.10;59.50
22469;DHT22;11401;50.792;4.352;2023-12-20T11:45:19;15.10;59.80
22469;DHT22;11401;50.792;4.352;2023-12-20T11:47:50;15.10;60.00
22469;DHT22;11401;50.792;4.352;2023-12-20T11:50:18;15.00;60.20
22469;DHT22;11401;50.792;4.352;2023-12-20T11:52:47;15.10;60.40
22469;DHT22;11401;50.792;4.352;2023-12-20T11:55:14;15.20;59.80
22469;DHT22;11401;50.792;4.352;2023-12-20T11:57:42;15.20;59.90
22469;DHT22;11401;50.792;4.352;2023-12-20T12:00:10;15.10;59.80
22469;DHT22;11401;50.792;4.352;2023-12-20T12:02:40;15.20;59.70
22469;DHT22;11401;50.792;4.352;2023-12-20T12:05:08;15.20;60.00
22469;DHT22;11401;50.792;4.352;2023-12-20T12:07:35;15.20;60.00
22469;DHT22;11401;50.792;4.352;2023-12-20T12:10:03;15.20;60.70
22469;DHT22;11401;50.792;4.352;2023-12-20T12:12:33;15.40;60.60
22469;DHT22;11401;50.792;4.352;2023-12-20T12:15:00;15.40;59.40
22469;DHT22;11401;50.792;4.352;2023-12-20T12:17:27;15.30;59.40
22469;DHT22;11401;50.792;4.352;2023-12-20T12:20:05;15.20;59.90
22469;DHT22;11401;50.792;4.352;2023-12-20T12:22:33;15.10;59.60
22469;DHT22;11401;50.792;4.352;2023-12-20T12:25:11;15.10;59.90
22469;DHT22;11401;50.792;4.352;2023-12-20T12:27:40;15.20;60.70
22469;DHT22;11401;50.792;4.352;2023-12-20T12:30:08;15.20;60.10
22469;DHT22;11401;50.792;4.352;2023-12-20T12:32:38;15.40;61.20
22469;DHT22;11401;50.792;4.352;2023-12-20T12:35:06;15.50;60.00
22469;DHT22;11401;50.792;4.352;2023-12-20T12:37:34;15.60;59.90
22469;DHT22;11401;50.792;4.352;2023-12-20T12:40:05;15.70;59.70
22469;DHT22;11401;50.792;4.352;2023-12-20T12:42:32;15.70;59.20
22469;DHT22;11401;50.792;4.352;2023-12-20T12:44:59;15.60;59.00
22469;DHT22;11401;50.792;4.352;2023-12-20T12:47:26;15.60;59.20
22469;DHT22;11401;50.792;4.352;2023-12-20T12:49:54;15.50;59.40
22469;DHT22;11401;50.792;4.352;2023-12-20T12:52:22;15.60;60.50
22469;DHT22;11401;50.792;4.352;2023-12-20T12:54:50;15.80;59.50
22469;DHT22;11401;50.792;4.352;2023-12-20T12:57:17;15.80;59.10
22469;DHT22;11401;50.792;4.352;2023-12-20T12:59:46;15.80;59.50
22469;DHT22;11401;50.792;4.352;2023-12-20T13:02:13;15.80;59.10
22469;DHT22;11401;50.792;4.352;2023-12-20T13:04:41;15.70;59.50
22469;DHT22;11401;50.792;4.352;2023-12-20T13:07:09;15.80;59.80
22469;DHT22;11401;50.792;4.352;2023-12-20T13:09:40;15.80;59.10
22469;DHT22;11401;50.792;4.352;2023-12-20T13:12:07;15.80;59.80
22469;DHT22;11401;50.792;4.352;2023-12-20T13:14:35;15.80;59.10
22469;DHT22;11401;50.792;4.352;2023-12-20T13:17:04;15.90;60.00
22469;DHT22;11401;50.792;4.352;2023-12-20T13:19:32;15.80;58.70
22469;DHT22;11401;50.792;4.352;2023-12-20T13:22:00;15.70;58.90
22469;DHT22;11401;50.792;4.352;2023-12-20T13:24:27;15.80;59.70
22469;DHT22;11401;50.792;4.352;2023-12-20T13:26:54;15.70;58.70
22469;DHT22;11401;50.792;4.352;2023-12-20T13:29:21;15.80;59.60
22469;DHT22;11401;50.792;4.352;2023-12-20T13:31:49;15.80;59.20
22469;DHT22;11401;50.792;4.352;2023-12-20T13:34:17;15.70;59.20
22469;DHT22;11401;50.792;4.352;2023-12-20T13:36:44;15.60;58.70
22469;DHT22;11401;50.792;4.352;2023-12-20T13:39:16;15.30;59.40
22469;DHT22;11401;50.792;4.352;2023-12-20T13:41:44;15.00;60.20
22469;DHT22;11401;50.792;4.352;2023-12-20T13:44:11;14.90;61.40
22469;DHT22;11401;50.792;4.352;2023-12-20T13:46:40;14.80;61.40
22469;DHT22;11401;50.792;4.352;2023-12-20T13:49:07;14.70;61.80
22469;DHT22;11401;50.792;4.352;2023-12-20T13:51:35;14.70;61.80
22469;DHT22;11401;50.792;4.352;2023-12-20T13:54:02;14.70;62.70
22469;DHT22;11401;50.792;4.352;2023-12-20T13:56:29;14.70;61.80
22469;DHT22;11401;50.792;4.352;2023-12-20T13:58:56;14.60;62.10
22469;DHT22;11401;50.792;4.352;2023-12-20T14:01:23;14.60;62.60
22469;DHT22;11401;50.792;4.352;2023-12-20T14:03:51;14.60;62.60
22469;DHT22;11401;50.792;4.352;2023-12-20T14:06:18;14.70;64.60
22469;DHT22;11401;50.792;4.352;2023-12-20T14:08:45;14.90;63.30
22469;DHT22;11401;50.792;4.352;2023-12-20T14:11:12;15.10;62.90
22469;DHT22;11401;50.792;4.352;2023-12-20T14:13:42;15.10;60.70
22469;DHT22;11401;50.792;4.352;2023-12-20T14:16:10;14.90;61.80
22469;DHT22;11401;50.792;4.352;2023-12-20T14:18:38;15.00;62.00
22469;DHT22;11401;50.792;4.352;2023-12-20T14:21:06;15.10;61.80
22469;DHT22;11401;50.792;4.352;2023-12-20T14:23:34;15.30;62.00
22469;DHT22;11401;50.792;4.352;2023-12-20T14:26:01;15.50;60.80
22469;DHT22;11401;50.792;4.352;2023-12-20T14:28:29;15.50;60.00
22469;DHT22;11401;50.792;4.352;2023-12-20T14:30:56;15.70;60.90
22469;DHT22;11401;50.792;4.352;2023-12-20T14:33:23;15.90;60.60
22469;DHT22;11401;50.792;4.352;2023-12-20T14:35:51;15.90;59.40
22469;DHT22;11401;50.792;4.352;2023-12-20T14:38:18;15.90;59.40
22469;DHT22;11401;50.792;4.352;2023-12-20T14:40:46;15.90;59.50
22469;DHT22;11401;50.792;4.352;2023-12-20T14:43:13;15.90;59.60
22469;DHT22;11401;50.792;4.352;2023-12-20T14:45:40;15.90;59.50
22469;DHT22;11401;50.792;4.352;2023-12-20T14:48:08;16.00;59.30
22469;DHT22;11401;50.792;4.352;2023-12-20T14:50:35;16.10;59.70
22469;DHT22;11401;50.792;4.352;2023-12-20T14:53:03;16.10;59.20
22469;DHT22;11401;50.792;4.352;2023-12-20T14:55:31;16.20;58.90
22469;DHT22;11401;50.792;4.352;2023-12-20T14:57:58;16.10;58.80
22469;DHT22;11401;50.792;4.352;2023-12-20T15:00:25;16.10;59.10
22469;DHT22;11401;50.792;4.352;2023-12-20T15:02:52;16.10;59.10
22469;DHT22;11401;50.792;4.352;2023-12-20T15:05:22;16.10;59.10
22469;DHT22;11401;50.792;4.352;2023-12-20T15:07:50;16.10;59.30
22469;DHT22;11401;50.792;4.352;2023-12-20T15:10:17;16.10;59.00
22469;DHT22;11401;50.792;4.352;2023-12-20T15:12:52;16.20;59.00
22469;DHT22;11401;50.792;4.352;2023-12-20T15:15:23;16.10;58.50
22469;DHT22;11401;50.792;4.352;2023-12-20T15:17:51;16.20;59.30
22469;DHT22;11401;50.792;4.352;2023-12-20T15:20:19;16.40;59.50
22469;DHT22;11401;50.792;4.352;2023-12-20T15:22:47;16.30;58.30
22469;DHT22;11401;50.792;4.352;2023-12-20T15:25:14;16.40;59.50
22469;DHT22;11401;50.792;4.352;2023-12-20T15:27:48;16.40;58.50
22469;DHT22;11401;50.792;4.352;2023-12-20T15:30:20;16.60;59.50
22469;DHT22;11401;50.792;4.352;2023-12-20T15:32:47;16.70;58.90
22469;DHT22;11401;50.792;4.352;2023-12-20T15:35:14;16.70;58.10
22469;DHT22;11401;50.792;4.352;2023-12-20T15:37:42;16.60;58.10
22469;DHT22;11401;50.792;4.352;2023-12-20T15:40:10;16.60;58.00
22469;DHT22;11401;50.792;4.352;2023-12-20T15:42:41;16.50;57.60
22469;DHT22;11401;50.792;4.352;2023-12-20T15:45:08;16.40;57.70